This is the latest recevied weather packets stored in our database for station/object OE-11361. If no packets are shown the sender has not sent any weather packets the latest 10 day(s).
| Time | Temp. | Humidity | Pressure | Rain* | Wind** | Luminosity | Snow |
|---|---|---|---|---|---|---|---|
| 1787602515 | 17.78° C | 79% | 1014.7 hPa | 0 mm | - | 0 W/m² | - |
| 1787601904 | 17.78° C | 78% | 1014.7 hPa | 0 mm | - | 0 W/m² | - |
| 1787601304 | 17.78° C | 80% | 1014.6 hPa | 0 mm | - | 0 W/m² | - |
| 1787600477 | 17.78° C | 78% | 1014.7 hPa | 0 mm | - | 0 W/m² | - |
| 1787600104 | 17.78° C | 79% | 1014.6 hPa | 0 mm | - | 0 W/m² | - |
| 1787599503 | 17.78° C | 79% | 1014.6 hPa | 0 mm | - | 0 W/m² | - |
| 1787598677 | 17.78° C | 78% | 1014.8 hPa | 0 mm | - | 0 W/m² | - |
| 1787598303 | 18.33° C | 78% | 1014.7 hPa | 0 mm | - | 0 W/m² | - |
| 1787597703 | 18.33° C | 76% | 1014.7 hPa | 0 mm | - | 0 W/m² | - |
| 1787596877 | 18.89° C | 75% | 1014.4 hPa | 0 mm | - | 0 W/m² | - |
| 1787596503 | 18.89° C | 73% | 1014.3 hPa | 0 mm | - | 0 W/m² | - |
| 1787595904 | 20° C | 70% | 1014 hPa | 0 mm | - | 0 W/m² | - |
| 1787595077 | 20° C | 67% | 1014 hPa | 0 mm | - | 7 W/m² | - |
| 1787594704 | 20.56° C | 66% | 1014 hPa | 0 mm | - | 14 W/m² | - |
| 1787594104 | 21.67° C | 58% | 1013.8 hPa | 0 mm | - | 28 W/m² | - |
| 1787593277 | 22.78° C | 51% | 1013.5 hPa | 0 mm | - | 41 W/m² | - |
| 1787592903 | 23.33° C | 49% | 1013.6 hPa | 0 mm | - | 62 W/m² | - |
| 1787592304 | 23.33° C | 49% | 1013.7 hPa | 0 mm | - | 83 W/m² | - |
| 1787591477 | 23.33° C | 48% | 1013.8 hPa | 0 mm | - | 110 W/m² | - |
| 1787591104 | 23.33° C | 49% | 1014 hPa | 0 mm | - | 138 W/m² | - |
| 1787590504 | 23.89° C | 48% | 1014 hPa | 0 mm | - | 165 W/m² | - |
| 1787589678 | 23.89° C | 49% | 1014.1 hPa | 0 mm | - | 193 W/m² | - |
| 1787589304 | 23.89° C | 46% | 1014.3 hPa | 0 mm | - | 221 W/m² | - |
| 1787588704 | 23.89° C | 47% | 1014.3 hPa | 0 mm | - | 255 W/m² | - |
| 1787587879 | 24.44° C | 47% | 1014.4 hPa | 0 mm | - | 283 W/m² | - |
* Rain latest hour (hover to see other rain measurements)
** Current wind speed in m/s (hover to see current wind gust speed)